sensor_id;sensor_type;location;lat;lon;timestamp;pressure;altitude;pressure_sealevel;temperature;humidity
59939;BME280;45801;51.810;19.444;2024-01-07T00:02:07;98999.58;;;-0.27;58.65
59939;BME280;45801;51.810;19.444;2024-01-07T00:04:34;99001.20;;;-0.33;58.78
59939;BME280;45801;51.810;19.444;2024-01-07T00:07:01;99003.77;;;-0.37;58.74
59939;BME280;45801;51.810;19.444;2024-01-07T00:09:27;99005.90;;;-0.39;58.92
59939;BME280;45801;51.810;19.444;2024-01-07T00:11:54;99004.19;;;-0.38;59.17
59939;BME280;45801;51.810;19.444;2024-01-07T00:14:20;99008.15;;;-0.38;59.07
59939;BME280;45801;51.810;19.444;2024-01-07T00:16:47;99010.84;;;-0.43;58.98
59939;BME280;45801;51.810;19.444;2024-01-07T00:19:14;99009.42;;;-0.44;59.19
59939;BME280;45801;51.810;19.444;2024-01-07T00:21:40;99016.92;;;-0.44;58.92
59939;BME280;45801;51.810;19.444;2024-01-07T00:24:08;99016.56;;;-0.45;58.60
59939;BME280;45801;51.810;19.444;2024-01-07T00:26:34;99018.47;;;-0.47;58.62
59939;BME280;45801;51.810;19.444;2024-01-07T00:29:01;99019.52;;;-0.48;58.86
59939;BME280;45801;51.810;19.444;2024-01-07T00:31:27;99024.55;;;-0.56;58.63
59939;BME280;45801;51.810;19.444;2024-01-07T00:33:54;99027.95;;;-0.61;58.47
59939;BME280;45801;51.810;19.444;2024-01-07T00:36:20;99029.39;;;-0.62;58.79
59939;BME280;45801;51.810;19.444;2024-01-07T00:38:47;99028.79;;;-0.61;58.70
59939;BME280;45801;51.810;19.444;2024-01-07T00:41:14;99030.80;;;-0.62;58.52
59939;BME280;45801;51.810;19.444;2024-01-07T00:43:41;99030.49;;;-0.64;58.43
59939;BME280;45801;51.810;19.444;2024-01-07T00:46:07;99029.95;;;-0.62;58.80
59939;BME280;45801;51.810;19.444;2024-01-07T00:48:34;99036.77;;;-0.63;58.81
59939;BME280;45801;51.810;19.444;2024-01-07T00:51:00;99033.67;;;-0.69;58.71
59939;BME280;45801;51.810;19.444;2024-01-07T00:53:27;99034.86;;;-0.71;58.58
59939;BME280;45801;51.810;19.444;2024-01-07T00:55:53;99034.39;;;-0.75;58.65
59939;BME280;45801;51.810;19.444;2024-01-07T00:58:20;99034.56;;;-0.76;58.45
59939;BME280;45801;51.810;19.444;2024-01-07T01:00:46;99032.45;;;-0.77;58.75
59939;BME280;45801;51.810;19.444;2024-01-07T01:03:13;99031.09;;;-0.75;58.93
59939;BME280;45801;51.810;19.444;2024-01-07T01:05:40;99031.27;;;-0.71;58.92
59939;BME280;45801;51.810;19.444;2024-01-07T01:08:06;99030.40;;;-0.67;58.89
59939;BME280;45801;51.810;19.444;2024-01-07T01:10:33;99026.87;;;-0.66;58.79
59939;BME280;45801;51.810;19.444;2024-01-07T01:13:00;99029.11;;;-0.68;58.92
59939;BME280;45801;51.810;19.444;2024-01-07T01:15:26;99029.70;;;-0.71;58.77
59939;BME280;45801;51.810;19.444;2024-01-07T01:17:53;99029.65;;;-0.72;59.07
59939;BME280;45801;51.810;19.444;2024-01-07T01:20:20;99029.94;;;-0.68;59.20
59939;BME280;45801;51.810;19.444;2024-01-07T01:22:46;99026.42;;;-0.65;58.90
59939;BME280;45801;51.810;19.444;2024-01-07T01:25:13;99027.66;;;-0.65;58.92
59939;BME280;45801;51.810;19.444;2024-01-07T01:27:40;99028.34;;;-0.67;59.03
59939;BME280;45801;51.810;19.444;2024-01-07T01:30:07;99023.77;;;-0.64;59.25
59939;BME280;45801;51.810;19.444;2024-01-07T01:32:34;99029.39;;;-0.64;59.06
59939;BME280;45801;51.810;19.444;2024-01-07T01:35:00;99035.08;;;-0.66;59.09
59939;BME280;45801;51.810;19.444;2024-01-07T01:37:27;99034.83;;;-0.75;58.98
59939;BME280;45801;51.810;19.444;2024-01-07T01:39:54;99028.80;;;-0.80;59.11
59939;BME280;45801;51.810;19.444;2024-01-07T01:42:20;99028.70;;;-0.83;59.36
59939;BME280;45801;51.810;19.444;2024-01-07T01:44:48;99031.67;;;-0.82;59.25
59939;BME280;45801;51.810;19.444;2024-01-07T01:47:15;99034.44;;;-0.80;59.24
59939;BME280;45801;51.810;19.444;2024-01-07T01:49:42;99035.30;;;-0.78;59.39
59939;BME280;45801;51.810;19.444;2024-01-07T01:52:09;99037.02;;;-0.78;59.03
59939;BME280;45801;51.810;19.444;2024-01-07T01:54:37;99039.60;;;-0.82;59.14
59939;BME280;45801;51.810;19.444;2024-01-07T01:57:04;99037.17;;;-0.84;59.34
59939;BME280;45801;51.810;19.444;2024-01-07T01:59:33;99039.99;;;-0.88;59.51
59939;BME280;45801;51.810;19.444;2024-01-07T02:02:01;99041.52;;;-0.90;59.45
59939;BME280;45801;51.810;19.444;2024-01-07T02:04:27;99041.23;;;-0.91;59.62
59939;BME280;45801;51.810;19.444;2024-01-07T02:06:54;99041.02;;;-0.92;59.34
59939;BME280;45801;51.810;19.444;2024-01-07T02:09:20;99043.44;;;-0.96;59.07
59939;BME280;45801;51.810;19.444;2024-01-07T02:12:19;99041.83;;;-1.02;59.63
59939;BME280;45801;51.810;19.444;2024-01-07T02:14:46;99041.29;;;-1.01;59.83
59939;BME280;45801;51.810;19.444;2024-01-07T02:17:12;99042.07;;;-0.98;59.86
59939;BME280;45801;51.810;19.444;2024-01-07T02:19:39;99038.67;;;-0.95;59.87
59939;BME280;45801;51.810;19.444;2024-01-07T02:22:05;99040.36;;;-0.92;59.39
59939;BME280;45801;51.810;19.444;2024-01-07T02:24:32;99044.70;;;-0.89;59.55
59939;BME280;45801;51.810;19.444;2024-01-07T02:26:58;99040.23;;;-0.95;59.43
59939;BME280;45801;51.810;19.444;2024-01-07T02:29:29;99039.18;;;-1.07;59.52
59939;BME280;45801;51.810;19.444;2024-01-07T02:31:55;99038.01;;;-1.11;59.84
59939;BME280;45801;51.810;19.444;2024-01-07T02:34:22;99038.75;;;-1.13;59.69
59939;BME280;45801;51.810;19.444;2024-01-07T02:36:48;99039.02;;;-1.15;59.88
59939;BME280;45801;51.810;19.444;2024-01-07T02:39:15;99045.46;;;-1.18;60.12
59939;BME280;45801;51.810;19.444;2024-01-07T02:41:42;99046.36;;;-1.22;60.25
59939;BME280;45801;51.810;19.444;2024-01-07T02:44:08;99045.89;;;-1.26;60.13
59939;BME280;45801;51.810;19.444;2024-01-07T02:46:35;99043.21;;;-1.31;60.10
59939;BME280;45801;51.810;19.444;2024-01-07T02:49:01;99047.26;;;-1.32;60.28
59939;BME280;45801;51.810;19.444;2024-01-07T02:51:28;99046.88;;;-1.34;60.21
59939;BME280;45801;51.810;19.444;2024-01-07T02:53:54;99047.81;;;-1.39;60.31
59939;BME280;45801;51.810;19.444;2024-01-07T02:56:22;99043.79;;;-1.42;60.05
59939;BME280;45801;51.810;19.444;2024-01-07T02:58:48;99042.12;;;-1.42;60.23
59939;BME280;45801;51.810;19.444;2024-01-07T03:01:15;99042.20;;;-1.45;60.31
59939;BME280;45801;51.810;19.444;2024-01-07T03:03:41;99041.52;;;-1.48;60.53
59939;BME280;45801;51.810;19.444;2024-01-07T03:06:10;99043.02;;;-1.49;60.49
59939;BME280;45801;51.810;19.444;2024-01-07T03:08:37;99044.02;;;-1.51;60.31
59939;BME280;45801;51.810;19.444;2024-01-07T03:11:05;99041.42;;;-1.53;60.33
59939;BME280;45801;51.810;19.444;2024-01-07T03:13:32;99044.83;;;-1.52;60.30
59939;BME280;45801;51.810;19.444;2024-01-07T03:15:59;99043.12;;;-1.50;60.42
59939;BME280;45801;51.810;19.444;2024-01-07T03:18:27;99047.91;;;-1.50;60.24
59939;BME280;45801;51.810;19.444;2024-01-07T03:20:54;99050.45;;;-1.48;60.13
59939;BME280;45801;51.810;19.444;2024-01-07T03:23:22;99051.09;;;-1.49;59.93
59939;BME280;45801;51.810;19.444;2024-01-07T03:25:48;99048.88;;;-1.55;59.83
59939;BME280;45801;51.810;19.444;2024-01-07T03:28:15;99052.78;;;-1.57;59.79
59939;BME280;45801;51.810;19.444;2024-01-07T03:30:42;99053.43;;;-1.62;59.94
59939;BME280;45801;51.810;19.444;2024-01-07T03:33:08;99050.67;;;-1.67;60.17
59939;BME280;45801;51.810;19.444;2024-01-07T03:35:35;99053.73;;;-1.70;60.20
59939;BME280;45801;51.810;19.444;2024-01-07T03:38:01;99058.23;;;-1.71;60.20
59939;BME280;45801;51.810;19.444;2024-01-07T03:40:28;99063.19;;;-1.72;60.30
59939;BME280;45801;51.810;19.444;2024-01-07T03:42:55;99063.73;;;-1.77;60.01
59939;BME280;45801;51.810;19.444;2024-01-07T03:45:21;99065.00;;;-1.80;60.06
59939;BME280;45801;51.810;19.444;2024-01-07T03:47:48;99068.81;;;-1.80;60.30
59939;BME280;45801;51.810;19.444;2024-01-07T03:50:14;99062.92;;;-1.82;60.44
59939;BME280;45801;51.810;19.444;2024-01-07T03:52:41;99068.18;;;-1.83;60.58
59939;BME280;45801;51.810;19.444;2024-01-07T03:55:07;99068.41;;;-1.86;60.58
59939;BME280;45801;51.810;19.444;2024-01-07T03:57:34;99068.38;;;-1.89;60.76
59939;BME280;45801;51.810;19.444;2024-01-07T04:00:00;99068.73;;;-1.90;60.64
59939;BME280;45801;51.810;19.444;2024-01-07T04:02:27;99071.17;;;-1.96;60.60
59939;BME280;45801;51.810;19.444;2024-01-07T04:04:53;99071.41;;;-1.99;60.72
59939;BME280;45801;51.810;19.444;2024-01-07T04:07:20;99070.27;;;-2.02;60.72
59939;BME280;45801;51.810;19.444;2024-01-07T04:09:47;99069.29;;;-2.02;60.87
59939;BME280;45801;51.810;19.444;2024-01-07T04:12:14;99073.39;;;-2.00;60.67
59939;BME280;45801;51.810;19.444;2024-01-07T04:14:43;99073.63;;;-1.99;60.72
59939;BME280;45801;51.810;19.444;2024-01-07T04:17:09;99079.77;;;-1.98;60.65
59939;BME280;45801;51.810;19.444;2024-01-07T04:19:37;99082.03;;;-2.01;60.50
59939;BME280;45801;51.810;19.444;2024-01-07T04:22:04;99084.88;;;-2.06;60.52
59939;BME280;45801;51.810;19.444;2024-01-07T04:24:31;99083.69;;;-2.13;60.32
59939;BME280;45801;51.810;19.444;2024-01-07T04:26:58;99080.70;;;-2.18;60.47
59939;BME280;45801;51.810;19.444;2024-01-07T04:29:24;99076.76;;;-2.18;60.51
59939;BME280;45801;51.810;19.444;2024-01-07T04:31:51;99078.13;;;-2.22;60.56
59939;BME280;45801;51.810;19.444;2024-01-07T04:34:17;99079.88;;;-2.25;61.02
59939;BME280;45801;51.810;19.444;2024-01-07T04:36:44;99086.38;;;-2.27;60.99
59939;BME280;45801;51.810;19.444;2024-01-07T04:39:10;99089.50;;;-2.33;61.18
59939;BME280;45801;51.810;19.444;2024-01-07T04:41:37;99091.11;;;-2.36;61.40
59939;BME280;45801;51.810;19.444;2024-01-07T04:44:04;99094.93;;;-2.32;61.32
59939;BME280;45801;51.810;19.444;2024-01-07T04:46:33;99098.34;;;-2.30;61.08
59939;BME280;45801;51.810;19.444;2024-01-07T04:49:00;99097.23;;;-2.33;61.38
59939;BME280;45801;51.810;19.444;2024-01-07T04:51:27;99101.48;;;-2.35;61.36
59939;BME280;45801;51.810;19.444;2024-01-07T04:53:55;99102.48;;;-2.39;61.38
59939;BME280;45801;51.810;19.444;2024-01-07T04:56:21;99103.08;;;-2.40;61.51
59939;BME280;45801;51.810;19.444;2024-01-07T04:58:49;99102.96;;;-2.45;61.26
59939;BME280;45801;51.810;19.444;2024-01-07T05:01:15;99106.79;;;-2.50;61.50
59939;BME280;45801;51.810;19.444;2024-01-07T05:03:42;99110.39;;;-2.50;61.57
59939;BME280;45801;51.810;19.444;2024-01-07T05:06:09;99108.56;;;-2.50;61.44
59939;BME280;45801;51.810;19.444;2024-01-07T05:08:36;99113.02;;;-2.47;61.44
59939;BME280;45801;51.810;19.444;2024-01-07T05:11:04;99113.56;;;-2.43;61.35
59939;BME280;45801;51.810;19.444;2024-01-07T05:13:30;99114.48;;;-2.45;60.85
59939;BME280;45801;51.810;19.444;2024-01-07T05:15:57;99115.02;;;-2.50;61.07
59939;BME280;45801;51.810;19.444;2024-01-07T05:18:24;99117.34;;;-2.53;61.35
59939;BME280;45801;51.810;19.444;2024-01-07T05:20:51;99120.42;;;-2.55;61.23
59939;BME280;45801;51.810;19.444;2024-01-07T05:23:18;99124.81;;;-2.61;61.27
59939;BME280;45801;51.810;19.444;2024-01-07T05:25:46;99128.02;;;-2.63;61.42
59939;BME280;45801;51.810;19.444;2024-01-07T05:28:12;99126.23;;;-2.58;61.67
59939;BME280;45801;51.810;19.444;2024-01-07T05:30:44;99123.20;;;-2.53;61.23
59939;BME280;45801;51.810;19.444;2024-01-07T05:33:11;99125.10;;;-2.53;61.10
59939;BME280;45801;51.810;19.444;2024-01-07T05:35:37;99121.71;;;-2.52;61.64
59939;BME280;45801;51.810;19.444;2024-01-07T05:38:04;99125.61;;;-2.51;61.74
59939;BME280;45801;51.810;19.444;2024-01-07T05:40:30;99126.29;;;-2.49;61.56
59939;BME280;45801;51.810;19.444;2024-01-07T05:42:57;99127.98;;;-2.47;61.71
59939;BME280;45801;51.810;19.444;2024-01-07T05:45:23;99128.68;;;-2.45;61.53
59939;BME280;45801;51.810;19.444;2024-01-07T05:47:50;99128.55;;;-2.43;61.53
59939;BME280;45801;51.810;19.444;2024-01-07T05:50:16;99131.59;;;-2.43;61.07
59939;BME280;45801;51.810;19.444;2024-01-07T05:52:45;99134.16;;;-2.43;61.12
59939;BME280;45801;51.810;19.444;2024-01-07T05:55:12;99132.63;;;-2.47;61.05
59939;BME280;45801;51.810;19.444;2024-01-07T05:57:38;99132.75;;;-2.47;61.28
59939;BME280;45801;51.810;19.444;2024-01-07T06:00:05;99131.10;;;-2.49;61.57
59939;BME280;45801;51.810;19.444;2024-01-07T06:02:34;99131.56;;;-2.49;61.63
59939;BME280;45801;51.810;19.444;2024-01-07T06:05:02;99127.98;;;-2.53;61.15
59939;BME280;45801;51.810;19.444;2024-01-07T06:07:29;99130.08;;;-2.58;61.31
59939;BME280;45801;51.810;19.444;2024-01-07T06:09:56;99131.48;;;-2.61;61.22
59939;BME280;45801;51.810;19.444;2024-01-07T06:12:22;99137.05;;;-2.68;61.14
59939;BME280;45801;51.810;19.444;2024-01-07T06:14:49;99137.00;;;-2.69;61.35
59939;BME280;45801;51.810;19.444;2024-01-07T06:17:15;99136.65;;;-2.72;61.40
59939;BME280;45801;51.810;19.444;2024-01-07T06:19:42;99137.95;;;-2.78;61.61
59939;BME280;45801;51.810;19.444;2024-01-07T06:22:08;99134.13;;;-2.82;61.68
59939;BME280;45801;51.810;19.444;2024-01-07T06:24:35;99135.39;;;-2.84;61.44
59939;BME280;45801;51.810;19.444;2024-01-07T06:27:01;99141.19;;;-2.80;61.34
59939;BME280;45801;51.810;19.444;2024-01-07T06:29:30;99145.10;;;-2.77;61.29
59939;BME280;45801;51.810;19.444;2024-01-07T06:31:57;99151.54;;;-2.78;61.39
59939;BME280;45801;51.810;19.444;2024-01-07T06:34:23;99156.10;;;-2.84;61.34
59939;BME280;45801;51.810;19.444;2024-01-07T06:36:50;99159.46;;;-2.85;61.32
59939;BME280;45801;51.810;19.444;2024-01-07T06:39:17;99161.87;;;-2.87;61.32
59939;BME280;45801;51.810;19.444;2024-01-07T06:41:44;99165.65;;;-2.90;61.21
59939;BME280;45801;51.810;19.444;2024-01-07T06:44:10;99171.42;;;-3.03;61.39
59939;BME280;45801;51.810;19.444;2024-01-07T06:46:37;99174.56;;;-3.14;61.23
59939;BME280;45801;51.810;19.444;2024-01-07T06:49:04;99177.59;;;-3.20;61.64
59939;BME280;45801;51.810;19.444;2024-01-07T06:51:30;99181.32;;;-3.24;61.79
59939;BME280;45801;51.810;19.444;2024-01-07T06:53:57;99182.34;;;-3.29;61.82
59939;BME280;45801;51.810;19.444;2024-01-07T06:56:23;99184.44;;;-3.30;61.97
59939;BME280;45801;51.810;19.444;2024-01-07T06:58:50;99186.67;;;-3.39;62.11
59939;BME280;45801;51.810;19.444;2024-01-07T07:01:20;99186.67;;;-3.48;61.87
59939;BME280;45801;51.810;19.444;2024-01-07T07:03:47;99190.62;;;-3.62;61.95
59939;BME280;45801;51.810;19.444;2024-01-07T07:06:14;99194.64;;;-3.65;62.58
59939;BME280;45801;51.810;19.444;2024-01-07T07:08:42;99196.88;;;-3.60;62.48
59939;BME280;45801;51.810;19.444;2024-01-07T07:11:09;99197.09;;;-3.57;62.29
59939;BME280;45801;51.810;19.444;2024-01-07T07:13:35;99197.29;;;-3.55;62.48
59939;BME280;45801;51.810;19.444;2024-01-07T07:16:02;99204.80;;;-3.48;62.38
59939;BME280;45801;51.810;19.444;2024-01-07T07:18:28;99207.39;;;-3.43;62.25
59939;BME280;45801;51.810;19.444;2024-01-07T07:20:55;99210.96;;;-3.45;62.02
59939;BME280;45801;51.810;19.444;2024-01-07T07:23:21;99212.48;;;-3.50;61.79
59939;BME280;45801;51.810;19.444;2024-01-07T07:25:48;99211.64;;;-3.59;62.36
59939;BME280;45801;51.810;19.444;2024-01-07T07:28:15;99214.89;;;-3.64;62.35
59939;BME280;45801;51.810;19.444;2024-01-07T07:30:43;99219.65;;;-3.65;62.48
59939;BME280;45801;51.810;19.444;2024-01-07T07:33:10;99222.64;;;-3.59;62.42
59939;BME280;45801;51.810;19.444;2024-01-07T07:35:37;99222.04;;;-3.52;62.16
59939;BME280;45801;51.810;19.444;2024-01-07T07:38:06;99223.90;;;-3.51;62.25
59939;BME280;45801;51.810;19.444;2024-01-07T07:40:32;99221.01;;;-3.52;61.99
59939;BME280;45801;51.810;19.444;2024-01-07T07:42:59;99218.63;;;-3.49;61.97
59939;BME280;45801;51.810;19.444;2024-01-07T07:45:26;99219.58;;;-3.41;62.10
59939;BME280;45801;51.810;19.444;2024-01-07T07:47:53;99220.17;;;-3.38;62.14
59939;BME280;45801;51.810;19.444;2024-01-07T07:50:19;99225.01;;;-3.38;62.43
59939;BME280;45801;51.810;19.444;2024-01-07T07:52:48;99225.63;;;-3.35;61.86
59939;BME280;45801;51.810;19.444;2024-01-07T07:55:14;99222.42;;;-3.30;61.69
59939;BME280;45801;51.810;19.444;2024-01-07T07:57:41;99223.95;;;-3.25;61.89
59939;BME280;45801;51.810;19.444;2024-01-07T08:00:08;99223.19;;;-3.27;62.09
59939;BME280;45801;51.810;19.444;2024-01-07T08:02:34;99225.94;;;-3.32;61.75
59939;BME280;45801;51.810;19.444;2024-01-07T08:05:01;99226.13;;;-3.37;61.71
59939;BME280;45801;51.810;19.444;2024-01-07T08:07:27;99226.64;;;-3.40;61.73
59939;BME280;45801;51.810;19.444;2024-01-07T08:09:54;99229.17;;;-3.41;61.86
59939;BME280;45801;51.810;19.444;2024-01-07T08:12:23;99231.80;;;-3.33;62.15
59939;BME280;45801;51.810;19.444;2024-01-07T08:14:50;99234.72;;;-3.26;61.98
59939;BME280;45801;51.810;19.444;2024-01-07T08:17:16;99237.62;;;-3.26;61.87
59939;BME280;45801;51.810;19.444;2024-01-07T08:19:44;99240.20;;;-3.26;61.77
59939;BME280;45801;51.810;19.444;2024-01-07T08:22:10;99244.06;;;-3.25;61.96
59939;BME280;45801;51.810;19.444;2024-01-07T08:24:38;99243.77;;;-3.15;62.05
59939;BME280;45801;51.810;19.444;2024-01-07T08:27:05;99243.10;;;-3.12;61.72
59939;BME280;45801;51.810;19.444;2024-01-07T08:29:31;99244.19;;;-3.09;61.65
59939;BME280;45801;51.810;19.444;2024-01-07T08:31:58;99244.73;;;-3.09;61.64
59939;BME280;45801;51.810;19.444;2024-01-07T08:34:24;99252.55;;;-3.09;61.84
59939;BME280;45801;51.810;19.444;2024-01-07T08:36:51;99255.27;;;-3.12;62.10
59939;BME280;45801;51.810;19.444;2024-01-07T08:39:20;99257.45;;;-3.17;61.86
59939;BME280;45801;51.810;19.444;2024-01-07T08:41:47;99255.62;;;-3.15;61.80
59939;BME280;45801;51.810;19.444;2024-01-07T08:44:16;99258.00;;;-3.10;61.75
59939;BME280;45801;51.810;19.444;2024-01-07T08:46:42;99257.39;;;-3.06;61.65
59939;BME280;45801;51.810;19.444;2024-01-07T08:49:11;99257.60;;;-3.04;61.51
59939;BME280;45801;51.810;19.444;2024-01-07T08:51:40;99262.92;;;-3.05;61.49
59939;BME280;45801;51.810;19.444;2024-01-07T08:54:06;99261.17;;;-3.04;61.50
59939;BME280;45801;51.810;19.444;2024-01-07T08:56:35;99261.41;;;-2.99;61.62
59939;BME280;45801;51.810;19.444;2024-01-07T08:59:02;99267.95;;;-3.01;61.23
59939;BME280;45801;51.810;19.444;2024-01-07T09:01:30;99268.33;;;-3.08;61.10
59939;BME280;45801;51.810;19.444;2024-01-07T09:03:57;99268.45;;;-3.19;61.13
59939;BME280;45801;51.810;19.444;2024-01-07T09:06:23;99268.88;;;-3.22;61.52
59939;BME280;45801;51.810;19.444;2024-01-07T09:08:50;99267.84;;;-3.18;61.53
59939;BME280;45801;51.810;19.444;2024-01-07T09:11:20;99272.80;;;-3.16;61.50
59939;BME280;45801;51.810;19.444;2024-01-07T09:13:46;99276.46;;;-3.19;61.35
59939;BME280;45801;51.810;19.444;2024-01-07T09:16:16;99277.80;;;-3.23;61.56
59939;BME280;45801;51.810;19.444;2024-01-07T09:18:43;99278.20;;;-3.33;61.75
59939;BME280;45801;51.810;19.444;2024-01-07T09:21:12;99277.82;;;-3.42;61.65
59939;BME280;45801;51.810;19.444;2024-01-07T09:23:39;99277.90;;;-3.48;62.17
59939;BME280;45801;51.810;19.444;2024-01-07T09:26:05;99278.45;;;-3.45;62.36
59939;BME280;45801;51.810;19.444;2024-01-07T09:28:32;99283.10;;;-3.41;62.09
59939;BME280;45801;51.810;19.444;2024-01-07T09:31:00;99284.52;;;-3.37;62.03
59939;BME280;45801;51.810;19.444;2024-01-07T09:33:26;99284.33;;;-3.35;61.99
59939;BME280;45801;51.810;19.444;2024-01-07T09:35:53;99287.50;;;-3.31;62.17
59939;BME280;45801;51.810;19.444;2024-01-07T09:38:21;99283.55;;;-3.26;62.08
59939;BME280;45801;51.810;19.444;2024-01-07T09:40:49;99285.56;;;-3.21;61.94
59939;BME280;45801;51.810;19.444;2024-01-07T09:43:16;99283.77;;;-3.22;61.65
59939;BME280;45801;51.810;19.444;2024-01-07T09:45:46;99285.47;;;-3.18;62.11
59939;BME280;45801;51.810;19.444;2024-01-07T09:48:13;99285.17;;;-3.18;62.18
59939;BME280;45801;51.810;19.444;2024-01-07T09:50:41;99282.59;;;-3.08;62.10
59939;BME280;45801;51.810;19.444;2024-01-07T09:53:15;99281.33;;;-3.01;61.74
59939;BME280;45801;51.810;19.444;2024-01-07T09:58:13;99277.88;;;-3.15;61.64
59939;BME280;45801;51.810;19.444;2024-01-07T10:00:40;99273.32;;;-3.18;61.86
59939;BME280;45801;51.810;19.444;2024-01-07T10:03:06;99275.36;;;-3.16;61.95
59939;BME280;45801;51.810;19.444;2024-01-07T10:05:33;99276.20;;;-3.11;61.97
59939;BME280;45801;51.810;19.444;2024-01-07T10:08:00;99273.66;;;-3.09;61.97
59939;BME280;45801;51.810;19.444;2024-01-07T10:10:28;99275.94;;;-3.10;61.97
59939;BME280;45801;51.810;19.444;2024-01-07T10:12:55;99272.95;;;-3.06;62.10
59939;BME280;45801;51.810;19.444;2024-01-07T10:15:23;99273.54;;;-3.05;62.08
59939;BME280;45801;51.810;19.444;2024-01-07T10:17:54;99273.73;;;-3.07;62.38
59939;BME280;45801;51.810;19.444;2024-01-07T10:20:22;99271.92;;;-2.99;62.20
59939;BME280;45801;51.810;19.444;2024-01-07T10:22:51;99269.73;;;-2.91;62.25
59939;BME280;45801;51.810;19.444;2024-01-07T10:25:18;99269.88;;;-2.84;62.18
59939;BME280;45801;51.810;19.444;2024-01-07T10:27:45;99275.16;;;-2.83;61.42
59939;BME280;45801;51.810;19.444;2024-01-07T10:30:12;99279.59;;;-2.96;61.06
59939;BME280;45801;51.810;19.444;2024-01-07T10:32:38;99281.95;;;-3.12;61.37
59939;BME280;45801;51.810;19.444;2024-01-07T10:35:12;99278.35;;;-3.14;61.65
59939;BME280;45801;51.810;19.444;2024-01-07T10:37:41;99280.07;;;-3.26;61.65
59939;BME280;45801;51.810;19.444;2024-01-07T10:40:11;99280.05;;;-3.27;61.95
59939;BME280;45801;51.810;19.444;2024-01-07T10:42:38;99281.69;;;-3.25;61.71
59939;BME280;45801;51.810;19.444;2024-01-07T10:45:05;99282.35;;;-3.15;62.29
59939;BME280;45801;51.810;19.444;2024-01-07T10:47:34;99280.53;;;-2.93;61.83
59939;BME280;45801;51.810;19.444;2024-01-07T10:50:03;99278.57;;;-2.90;61.27
59939;BME280;45801;51.810;19.444;2024-01-07T10:52:32;99274.54;;;-2.93;61.71
59939;BME280;45801;51.810;19.444;2024-01-07T10:55:06;99277.36;;;-2.92;61.65
59939;BME280;45801;51.810;19.444;2024-01-07T10:57:43;99276.58;;;-2.95;61.52
59939;BME280;45801;51.810;19.444;2024-01-07T11:00:14;99271.09;;;-2.93;61.78
59939;BME280;45801;51.810;19.444;2024-01-07T11:05:50;99271.45;;;-3.02;61.59
59939;BME280;45801;51.810;19.444;2024-01-07T11:08:27;99268.52;;;-3.06;61.68
59939;BME280;45801;51.810;19.444;2024-01-07T11:11:05;99263.85;;;-3.10;61.62
59939;BME280;45801;51.810;19.444;2024-01-07T11:13:37;99261.49;;;-3.02;62.24
59939;BME280;45801;51.810;19.444;2024-01-07T11:16:08;99253.60;;;-2.86;61.63
59939;BME280;45801;51.810;19.444;2024-01-07T11:18:40;99256.08;;;-2.78;61.53
59939;BME280;45801;51.810;19.444;2024-01-07T11:21:20;99255.04;;;-2.71;61.50
59939;BME280;45801;51.810;19.444;2024-01-07T11:23:47;99258.05;;;-2.72;61.50
59939;BME280;45801;51.810;19.444;2024-01-07T11:26:14;99258.34;;;-2.71;61.74
59939;BME280;45801;51.810;19.444;2024-01-07T11:31:10;99258.42;;;-2.73;61.21
59939;BME280;45801;51.810;19.444;2024-01-07T11:33:37;99258.48;;;-2.80;61.39
59939;BME280;45801;51.810;19.444;2024-01-07T11:36:06;99259.20;;;-2.79;61.52
59939;BME280;45801;51.810;19.444;2024-01-07T11:38:34;99259.11;;;-2.80;61.53
59939;BME280;45801;51.810;19.444;2024-01-07T11:41:04;99260.58;;;-2.78;61.58
59939;BME280;45801;51.810;19.444;2024-01-07T11:43:32;99259.27;;;-2.77;61.26
59939;BME280;45801;51.810;19.444;2024-01-07T11:46:00;99258.47;;;-2.77;61.02
59939;BME280;45801;51.810;19.444;2024-01-07T11:48:27;99255.84;;;-2.79;60.36
59939;BME280;45801;51.810;19.444;2024-01-07T11:50:53;99257.24;;;-2.73;60.99
59939;BME280;45801;51.810;19.444;2024-01-07T11:53:20;99253.05;;;-2.67;60.99
59939;BME280;45801;51.810;19.444;2024-01-07T11:55:47;99254.98;;;-2.64;60.40
59939;BME280;45801;51.810;19.444;2024-01-07T11:58:13;99260.38;;;-2.60;60.69
59939;BME280;45801;51.810;19.444;2024-01-07T12:00:40;99259.59;;;-2.55;60.62
59939;BME280;45801;51.810;19.444;2024-01-07T12:03:12;99258.63;;;-2.53;60.81
59939;BME280;45801;51.810;19.444;2024-01-07T12:05:39;99260.72;;;-2.42;60.63
59939;BME280;45801;51.810;19.444;2024-01-07T12:08:06;99262.11;;;-2.41;60.27
59939;BME280;45801;51.810;19.444;2024-01-07T12:10:33;99259.71;;;-2.45;60.13
59939;BME280;45801;51.810;19.444;2024-01-07T12:13:00;99260.31;;;-2.49;60.40
59939;BME280;45801;51.810;19.444;2024-01-07T12:15:27;99261.77;;;-2.59;60.48
59939;BME280;45801;51.810;19.444;2024-01-07T12:17:58;99262.38;;;-2.68;60.69
59939;BME280;45801;51.810;19.444;2024-01-07T12:20:25;99260.81;;;-2.68;60.54
59939;BME280;45801;51.810;19.444;2024-01-07T12:22:56;99264.21;;;-2.66;60.78
59939;BME280;45801;51.810;19.444;2024-01-07T12:25:23;99266.08;;;-2.69;60.15
59939;BME280;45801;51.810;19.444;2024-01-07T12:27:52;99267.30;;;-2.74;60.37
59939;BME280;45801;51.810;19.444;2024-01-07T12:30:32;99269.30;;;-2.79;60.91
59939;BME280;45801;51.810;19.444;2024-01-07T12:32:59;99270.92;;;-2.79;60.83
59939;BME280;45801;51.810;19.444;2024-01-07T12:35:27;99269.96;;;-2.76;60.57
59939;BME280;45801;51.810;19.444;2024-01-07T12:37:54;99274.70;;;-2.74;60.49
59939;BME280;45801;51.810;19.444;2024-01-07T12:40:22;99274.96;;;-2.80;60.65
59939;BME280;45801;51.810;19.444;2024-01-07T12:42:51;99273.77;;;-2.83;60.59
59939;BME280;45801;51.810;19.444;2024-01-07T12:45:17;99275.19;;;-2.63;61.32
59939;BME280;45801;51.810;19.444;2024-01-07T12:47:44;99275.02;;;-2.35;60.71
59939;BME280;45801;51.810;19.444;2024-01-07T12:50:13;99272.44;;;-2.28;61.19
59939;BME280;45801;51.810;19.444;2024-01-07T12:52:42;99273.70;;;-2.24;60.67
59939;BME280;45801;51.810;19.444;2024-01-07T12:55:08;99276.55;;;-2.26;60.22
59939;BME280;45801;51.810;19.444;2024-01-07T12:57:35;99282.39;;;-2.32;60.08
59939;BME280;45801;51.810;19.444;2024-01-07T13:00:03;99285.07;;;-2.35;60.33